sensor_id;sensor_type;location;lat;lon;timestamp;pressure;altitude;pressure_sealevel;temperature;humidity
57668;BME280;43499;52.366;12.912;2022-09-16T00:00:49;100213.94;;;11.91;83.59
57668;BME280;43499;52.366;12.912;2022-09-16T00:01:51;100209.91;;;11.96;83.59
57668;BME280;43499;52.366;12.912;2022-09-16T00:02:53;100209.22;;;11.98;83.63
57668;BME280;43499;52.366;12.912;2022-09-16T00:03:55;100209.78;;;11.94;83.47
57668;BME280;43499;52.366;12.912;2022-09-16T00:04:57;100219.91;;;11.88;83.61
57668;BME280;43499;52.366;12.912;2022-09-16T00:05:58;100217.66;;;11.81;84.25
57668;BME280;43499;52.366;12.912;2022-09-16T00:06:59;100209.25;;;11.73;85.25
57668;BME280;43499;52.366;12.912;2022-09-16T00:08:00;100215.81;;;11.80;84.35
57668;BME280;43499;52.366;12.912;2022-09-16T00:09:01;100208.28;;;11.84;84.40
57668;BME280;43499;52.366;12.912;2022-09-16T00:10:03;100221.53;;;11.86;84.23
57668;BME280;43499;52.366;12.912;2022-09-16T00:11:05;100220.00;;;11.89;84.28
57668;BME280;43499;52.366;12.912;2022-09-16T00:12:06;100214.22;;;11.82;84.46
57668;BME280;43499;52.366;12.912;2022-09-16T00:13:07;100216.03;;;11.83;84.71
57668;BME280;43499;52.366;12.912;2022-09-16T00:14:09;100217.16;;;11.86;84.13
57668;BME280;43499;52.366;12.912;2022-09-16T00:15:10;100213.03;;;11.90;84.45
57668;BME280;43499;52.366;12.912;2022-09-16T00:16:19;100210.19;;;11.87;84.42
57668;BME280;43499;52.366;12.912;2022-09-16T00:17:21;100211.59;;;11.82;85.06
57668;BME280;43499;52.366;12.912;2022-09-16T00:18:22;100212.50;;;11.82;84.36
57668;BME280;43499;52.366;12.912;2022-09-16T00:19:24;100205.91;;;11.76;85.04
57668;BME280;43499;52.366;12.912;2022-09-16T00:20:26;100211.69;;;11.70;85.58
57668;BME280;43499;52.366;12.912;2022-09-16T00:21:28;100211.78;;;11.71;85.13
57668;BME280;43499;52.366;12.912;2022-09-16T00:22:32;100206.41;;;11.70;85.48
57668;BME280;43499;52.366;12.912;2022-09-16T00:23:34;100214.19;;;11.68;85.57
57668;BME280;43499;52.366;12.912;2022-09-16T00:24:35;100206.28;;;11.68;85.76
57668;BME280;43499;52.366;12.912;2022-09-16T00:25:36;100212.47;;;11.69;86.02
57668;BME280;43499;52.366;12.912;2022-09-16T00:26:37;100218.06;;;11.73;84.91
57668;BME280;43499;52.366;12.912;2022-09-16T00:27:39;100213.81;;;11.76;85.17
57668;BME280;43499;52.366;12.912;2022-09-16T00:28:40;100213.81;;;11.76;85.15
57668;BME280;43499;52.366;12.912;2022-09-16T00:29:41;100209.56;;;11.78;85.13
57668;BME280;43499;52.366;12.912;2022-09-16T00:30:42;100207.00;;;11.66;85.69
57668;BME280;43499;52.366;12.912;2022-09-16T00:31:43;100201.94;;;11.69;85.22
57668;BME280;43499;52.366;12.912;2022-09-16T00:32:44;100208.13;;;11.69;85.35
57668;BME280;43499;52.366;12.912;2022-09-16T00:33:46;100212.38;;;11.67;86.02
57668;BME280;43499;52.366;12.912;2022-09-16T00:34:47;100210.75;;;11.69;85.16
57668;BME280;43499;52.366;12.912;2022-09-16T00:35:48;100206.63;;;11.73;85.57
57668;BME280;43499;52.366;12.912;2022-09-16T00:36:49;100216.44;;;11.76;85.48
57668;BME280;43499;52.366;12.912;2022-09-16T00:37:50;100219.19;;;11.77;85.14
57668;BME280;43499;52.366;12.912;2022-09-16T00:38:52;100225.88;;;11.72;85.61
57668;BME280;43499;52.366;12.912;2022-09-16T00:39:54;100221.28;;;11.69;85.89
57668;BME280;43499;52.366;12.912;2022-09-16T00:40:55;100222.56;;;11.49;86.45
57668;BME280;43499;52.366;12.912;2022-09-16T00:41:56;100218.63;;;11.56;86.47
57668;BME280;43499;52.366;12.912;2022-09-16T00:42:57;100217.81;;;11.57;86.54
57668;BME280;43499;52.366;12.912;2022-09-16T00:44:02;100228.63;;;11.48;87.09
57668;BME280;43499;52.366;12.912;2022-09-16T00:45:12;100226.00;;;11.48;87.54
57668;BME280;43499;52.366;12.912;2022-09-16T00:46:14;100223.06;;;11.57;86.36
57668;BME280;43499;52.366;12.912;2022-09-16T00:47:20;100219.22;;;11.52;87.08
57668;BME280;43499;52.366;12.912;2022-09-16T00:48:24;100226.19;;;11.51;86.78
57668;BME280;43499;52.366;12.912;2022-09-16T00:49:28;100224.91;;;11.58;87.07
57668;BME280;43499;52.366;12.912;2022-09-16T00:50:40;100228.69;;;11.62;86.83
57668;BME280;43499;52.366;12.912;2022-09-16T00:51:44;100226.22;;;11.65;86.68
57668;BME280;43499;52.366;12.912;2022-09-16T00:52:48;100226.94;;;11.62;86.17
57668;BME280;43499;52.366;12.912;2022-09-16T00:53:54;100226.72;;;11.59;86.75
57668;BME280;43499;52.366;12.912;2022-09-16T00:54:58;100227.34;;;11.55;87.45
57668;BME280;43499;52.366;12.912;2022-09-16T00:56:04;100217.00;;;11.58;86.62
57668;BME280;43499;52.366;12.912;2022-09-16T00:57:07;100217.94;;;11.58;86.69
57668;BME280;43499;52.366;12.912;2022-09-16T00:58:50;100220.94;;;11.51;87.25
57668;BME280;43499;52.366;12.912;2022-09-16T00:59:54;100224.97;;;11.46;87.30
57668;BME280;43499;52.366;12.912;2022-09-16T01:00:55;100212.94;;;11.50;87.00
57668;BME280;43499;52.366;12.912;2022-09-16T01:01:58;100223.69;;;11.53;86.50
57668;BME280;43499;52.366;12.912;2022-09-16T01:03:03;100216.50;;;11.50;87.07
57668;BME280;43499;52.366;12.912;2022-09-16T01:04:13;100217.19;;;11.48;87.15
57668;BME280;43499;52.366;12.912;2022-09-16T01:05:19;100214.44;;;11.46;87.15
57668;BME280;43499;52.366;12.912;2022-09-16T01:06:23;100222.44;;;11.48;86.74
57668;BME280;43499;52.366;12.912;2022-09-16T01:07:38;100220.28;;;11.42;87.50
57668;BME280;43499;52.366;12.912;2022-09-16T01:08:42;100224.84;;;11.45;87.27
57668;BME280;43499;52.366;12.912;2022-09-16T01:09:43;100220.50;;;11.45;87.48
57668;BME280;43499;52.366;12.912;2022-09-16T01:10:44;100223.31;;;11.35;87.45
57668;BME280;43499;52.366;12.912;2022-09-16T01:11:45;100225.25;;;11.37;87.78
57668;BME280;43499;52.366;12.912;2022-09-16T01:12:50;100222.59;;;11.37;87.93
57668;BME280;43499;52.366;12.912;2022-09-16T01:13:52;100227.56;;;11.33;87.90
57668;BME280;43499;52.366;12.912;2022-09-16T01:14:53;100225.00;;;11.21;88.38
57668;BME280;43499;52.366;12.912;2022-09-16T01:16:06;100217.41;;;11.25;88.07
57668;BME280;43499;52.366;12.912;2022-09-16T01:17:20;100217.34;;;11.12;88.91
57668;BME280;43499;52.366;12.912;2022-09-16T01:18:54;100225.97;;;11.23;88.10
57668;BME280;43499;52.366;12.912;2022-09-16T01:20:10;100212.41;;;11.17;88.82
57668;BME280;43499;52.366;12.912;2022-09-16T01:24:13;100227.97;;;11.14;88.30
57668;BME280;43499;52.366;12.912;2022-09-16T01:25:41;100230.81;;;11.17;87.99
57668;BME280;43499;52.366;12.912;2022-09-16T01:27:17;100237.13;;;11.19;88.65
57668;BME280;43499;52.366;12.912;2022-09-16T01:30:13;100223.25;;;11.21;87.95
57668;BME280;43499;52.366;12.912;2022-09-16T01:31:25;100220.63;;;11.21;88.46
57668;BME280;43499;52.366;12.912;2022-09-16T01:33:05;100219.59;;;11.19;88.49
57668;BME280;43499;52.366;12.912;2022-09-16T01:34:33;100217.44;;;11.14;88.75
57668;BME280;43499;52.366;12.912;2022-09-16T01:35:55;100225.81;;;11.08;89.07
57668;BME280;43499;52.366;12.912;2022-09-16T01:37:11;100215.78;;;11.02;89.21
57668;BME280;43499;52.366;12.912;2022-09-16T01:38:21;100216.00;;;11.05;89.53
57668;BME280;43499;52.366;12.912;2022-09-16T01:39:28;100221.84;;;11.01;88.99
57668;BME280;43499;52.366;12.912;2022-09-16T01:40:35;100225.97;;;10.98;90.23
57668;BME280;43499;52.366;12.912;2022-09-16T01:42:03;100221.09;;;10.90;90.12
57668;BME280;43499;52.366;12.912;2022-09-16T01:43:30;100223.72;;;10.90;90.48
57668;BME280;43499;52.366;12.912;2022-09-16T01:44:54;100221.50;;;10.96;90.06
57668;BME280;43499;52.366;12.912;2022-09-16T01:46:06;100220.00;;;11.00;89.35
57668;BME280;43499;52.366;12.912;2022-09-16T01:47:18;100216.56;;;11.01;89.99
57668;BME280;43499;52.366;12.912;2022-09-16T01:48:28;100225.16;;;10.99;89.99
57668;BME280;43499;52.366;12.912;2022-09-16T01:49:45;100221.75;;;11.00;89.21
57668;BME280;43499;52.366;12.912;2022-09-16T01:51:05;100219.81;;;10.97;89.77
57668;BME280;43499;52.366;12.912;2022-09-16T01:52:16;100225.16;;;10.99;89.98
57668;BME280;43499;52.366;12.912;2022-09-16T01:53:25;100222.53;;;10.99;89.05
57668;BME280;43499;52.366;12.912;2022-09-16T01:54:35;100222.63;;;11.00;89.36
57668;BME280;43499;52.366;12.912;2022-09-16T01:55:42;100218.88;;;10.96;89.75
57668;BME280;43499;52.366;12.912;2022-09-16T01:57:02;100219.13;;;11.00;89.95
57668;BME280;43499;52.366;12.912;2022-09-16T01:58:14;100220.63;;;10.96;89.53
57668;BME280;43499;52.366;12.912;2022-09-16T01:59:27;100216.47;;;11.00;89.46
57668;BME280;43499;52.366;12.912;2022-09-16T02:00:29;100213.06;;;11.01;89.37
57668;BME280;43499;52.366;12.912;2022-09-16T02:01:40;100225.41;;;10.90;90.10
57668;BME280;43499;52.366;12.912;2022-09-16T02:02:55;100221.41;;;10.95;89.83
57668;BME280;43499;52.366;12.912;2022-09-16T02:04:21;100220.72;;;10.98;89.99
57668;BME280;43499;52.366;12.912;2022-09-16T02:05:27;100219.25;;;10.89;89.72
57668;BME280;43499;52.366;12.912;2022-09-16T02:06:30;100223.03;;;10.93;89.69
57668;BME280;43499;52.366;12.912;2022-09-16T02:07:35;100228.53;;;10.84;90.04
57668;BME280;43499;52.366;12.912;2022-09-16T02:08:53;100226.13;;;10.87;90.21
57668;BME280;43499;52.366;12.912;2022-09-16T02:10:24;100223.16;;;10.83;90.13
57668;BME280;43499;52.366;12.912;2022-09-16T02:11:20;100228.44;;;10.83;90.89
57668;BME280;43499;52.366;12.912;2022-09-16T02:12:25;100221.56;;;10.85;90.39
57668;BME280;43499;52.366;12.912;2022-09-16T02:13:38;100223.41;;;10.74;90.84
57668;BME280;43499;52.366;12.912;2022-09-16T02:14:42;100231.28;;;10.74;90.82
57668;BME280;43499;52.366;12.912;2022-09-16T02:15:46;100232.56;;;10.79;91.09
57668;BME280;43499;52.366;12.912;2022-09-16T02:16:53;100226.38;;;10.78;90.50
57668;BME280;43499;52.366;12.912;2022-09-16T02:18:01;100226.59;;;10.82;90.52
57668;BME280;43499;52.366;12.912;2022-09-16T02:19:08;100230.81;;;10.79;90.56
57668;BME280;43499;52.366;12.912;2022-09-16T02:20:16;100225.78;;;10.83;90.60
57668;BME280;43499;52.366;12.912;2022-09-16T02:21:21;100221.44;;;10.83;90.32
57668;BME280;43499;52.366;12.912;2022-09-16T02:22:28;100225.00;;;10.84;90.02
57668;BME280;43499;52.366;12.912;2022-09-16T02:23:38;100219.50;;;10.80;90.69
57668;BME280;43499;52.366;12.912;2022-09-16T02:24:42;100224.75;;;10.80;90.61
57668;BME280;43499;52.366;12.912;2022-09-16T02:25:46;100224.88;;;10.82;90.49
57668;BME280;43499;52.366;12.912;2022-09-16T02:26:54;100218.47;;;10.78;90.89
57668;BME280;43499;52.366;12.912;2022-09-16T02:27:59;100220.06;;;10.76;90.59
57668;BME280;43499;52.366;12.912;2022-09-16T02:29:07;100223.88;;;10.80;90.15
57668;BME280;43499;52.366;12.912;2022-09-16T02:30:15;100216.06;;;10.82;89.53
57668;BME280;43499;52.366;12.912;2022-09-16T02:31:20;100218.72;;;10.82;89.83
57668;BME280;43499;52.366;12.912;2022-09-16T02:32:24;100221.34;;;10.82;90.49
57668;BME280;43499;52.366;12.912;2022-09-16T02:33:35;100207.38;;;10.83;90.35
57668;BME280;43499;52.366;12.912;2022-09-16T02:34:40;100224.00;;;10.70;90.92
57668;BME280;43499;52.366;12.912;2022-09-16T02:35:45;100222.38;;;10.72;91.46
57668;BME280;43499;52.366;12.912;2022-09-16T02:36:52;100220.69;;;10.72;90.61
57668;BME280;43499;52.366;12.912;2022-09-16T02:37:58;100214.50;;;10.72;91.34
57668;BME280;43499;52.366;12.912;2022-09-16T02:39:05;100219.97;;;10.75;91.21
57668;BME280;43499;52.366;12.912;2022-09-16T02:40:13;100220.22;;;10.66;91.53
57668;BME280;43499;52.366;12.912;2022-09-16T02:41:16;100216.00;;;10.68;91.06
57668;BME280;43499;52.366;12.912;2022-09-16T02:42:17;100222.28;;;10.70;91.15
57668;BME280;43499;52.366;12.912;2022-09-16T02:43:18;100217.81;;;10.69;91.14
57668;BME280;43499;52.366;12.912;2022-09-16T02:44:19;100219.56;;;10.69;90.52
57668;BME280;43499;52.366;12.912;2022-09-16T02:45:22;100223.44;;;10.62;91.68
57668;BME280;43499;52.366;12.912;2022-09-16T02:46:55;100224.34;;;10.62;91.71
57668;BME280;43499;52.366;12.912;2022-09-16T02:48:06;100225.59;;;10.68;90.93
57668;BME280;43499;52.366;12.912;2022-09-16T02:49:23;100221.25;;;10.68;90.81
57668;BME280;43499;52.366;12.912;2022-09-16T02:51:22;100220.34;;;10.68;91.19
57668;BME280;43499;52.366;12.912;2022-09-16T02:52:05;100214.31;;;10.57;92.01
57668;BME280;43499;52.366;12.912;2022-09-16T02:53:35;100221.28;;;10.56;91.34
57668;BME280;43499;52.366;12.912;2022-09-16T02:54:51;100225.75;;;10.57;91.52
57668;BME280;43499;52.366;12.912;2022-09-16T02:55:59;100222.66;;;10.51;91.45
57668;BME280;43499;52.366;12.912;2022-09-16T02:57:02;100219.47;;;10.55;91.88
57668;BME280;43499;52.366;12.912;2022-09-16T02:58:05;100221.16;;;10.55;91.87
57668;BME280;43499;52.366;12.912;2022-09-16T02:59:09;100214.06;;;10.54;91.89
57668;BME280;43499;52.366;12.912;2022-09-16T03:00:11;100219.78;;;10.48;92.07
57668;BME280;43499;52.366;12.912;2022-09-16T03:01:12;100226.88;;;10.49;92.04
57668;BME280;43499;52.366;12.912;2022-09-16T03:02:13;100221.94;;;10.54;91.87
57668;BME280;43499;52.366;12.912;2022-09-16T03:03:14;100222.88;;;10.54;91.84
57668;BME280;43499;52.366;12.912;2022-09-16T03:04:18;100223.44;;;10.50;92.05
57668;BME280;43499;52.366;12.912;2022-09-16T03:05:19;100231.34;;;10.50;92.31
57668;BME280;43499;52.366;12.912;2022-09-16T03:06:22;100223.69;;;10.53;91.89
57668;BME280;43499;52.366;12.912;2022-09-16T03:07:24;100221.84;;;10.52;91.78
57668;BME280;43499;52.366;12.912;2022-09-16T03:08:26;100227.22;;;10.54;91.64
57668;BME280;43499;52.366;12.912;2022-09-16T03:09:27;100219.47;;;10.55;92.18
57668;BME280;43499;52.366;12.912;2022-09-16T03:10:36;100218.66;;;10.56;91.40
57668;BME280;43499;52.366;12.912;2022-09-16T03:13:11;100221.16;;;10.55;91.84
57668;BME280;43499;52.366;12.912;2022-09-16T03:14:42;100218.44;;;10.41;92.48
57668;BME280;43499;52.366;12.912;2022-09-16T03:15:58;100216.03;;;10.44;91.96
57668;BME280;43499;52.366;12.912;2022-09-16T03:17:23;100215.00;;;10.42;91.99
57668;BME280;43499;52.366;12.912;2022-09-16T03:19:28;100223.81;;;10.43;93.17
57668;BME280;43499;52.366;12.912;2022-09-16T03:21:16;100215.31;;;10.35;92.86
57668;BME280;43499;52.366;12.912;2022-09-16T03:22:46;100222.41;;;10.36;93.01
57668;BME280;43499;52.366;12.912;2022-09-16T03:23:57;100214.44;;;10.34;93.01
57668;BME280;43499;52.366;12.912;2022-09-16T03:26:20;100215.78;;;10.29;93.64
57668;BME280;43499;52.366;12.912;2022-09-16T03:27:29;100226.72;;;10.35;93.09
57668;BME280;43499;52.366;12.912;2022-09-16T03:28:51;100215.31;;;10.35;93.63
57668;BME280;43499;52.366;12.912;2022-09-16T03:30:00;100220.25;;;10.30;93.38
57668;BME280;43499;52.366;12.912;2022-09-16T03:31:10;100212.81;;;10.37;93.42
57668;BME280;43499;52.366;12.912;2022-09-16T03:32:20;100215.00;;;10.42;92.90
57668;BME280;43499;52.366;12.912;2022-09-16T03:33:46;100214.34;;;10.45;92.33
57668;BME280;43499;52.366;12.912;2022-09-16T03:34:56;100208.16;;;10.44;92.29
57668;BME280;43499;52.366;12.912;2022-09-16T03:36:02;100216.50;;;10.39;92.40
57668;BME280;43499;52.366;12.912;2022-09-16T03:37:08;100215.69;;;10.40;92.60
57668;BME280;43499;52.366;12.912;2022-09-16T03:38:12;100217.75;;;10.44;91.79
57668;BME280;43499;52.366;12.912;2022-09-16T03:39:13;100215.22;;;10.45;92.39
57668;BME280;43499;52.366;12.912;2022-09-16T03:40:17;100217.84;;;10.45;91.90
57668;BME280;43499;52.366;12.912;2022-09-16T03:41:19;100216.16;;;10.46;92.49
57668;BME280;43499;52.366;12.912;2022-09-16T03:42:20;100215.94;;;10.43;92.61
57668;BME280;43499;52.366;12.912;2022-09-16T03:43:22;100214.09;;;10.42;92.81
57668;BME280;43499;52.366;12.912;2022-09-16T03:44:33;100208.94;;;10.43;92.11
57668;BME280;43499;52.366;12.912;2022-09-16T03:45:34;100213.16;;;10.41;92.13
57668;BME280;43499;52.366;12.912;2022-09-16T03:46:35;100210.44;;;10.40;92.37
57668;BME280;43499;52.366;12.912;2022-09-16T03:47:36;100212.69;;;10.35;92.58
57668;BME280;43499;52.366;12.912;2022-09-16T03:48:37;100214.19;;;10.31;92.70
57668;BME280;43499;52.366;12.912;2022-09-16T03:49:38;100210.16;;;10.37;92.30
57668;BME280;43499;52.366;12.912;2022-09-16T03:50:39;100212.69;;;10.35;92.42
57668;BME280;43499;52.366;12.912;2022-09-16T03:51:40;100211.34;;;10.28;92.57
57668;BME280;43499;52.366;12.912;2022-09-16T03:52:42;100207.00;;;10.29;92.95
57668;BME280;43499;52.366;12.912;2022-09-16T03:53:43;100205.97;;;10.27;92.85
57668;BME280;43499;52.366;12.912;2022-09-16T03:54:44;100206.06;;;10.28;92.56
57668;BME280;43499;52.366;12.912;2022-09-16T03:55:47;100208.25;;;10.34;92.51
57668;BME280;43499;52.366;12.912;2022-09-16T03:56:48;100201.84;;;10.30;92.45
57668;BME280;43499;52.366;12.912;2022-09-16T03:57:51;100205.03;;;10.26;92.95
57668;BME280;43499;52.366;12.912;2022-09-16T03:58:52;100212.81;;;10.25;93.13
57668;BME280;43499;52.366;12.912;2022-09-16T03:59:53;100211.34;;;10.28;92.84
57668;BME280;43499;52.366;12.912;2022-09-16T04:00:54;100202.56;;;10.28;92.47
57668;BME280;43499;52.366;12.912;2022-09-16T04:01:56;100208.81;;;10.30;92.48
57668;BME280;43499;52.366;12.912;2022-09-16T04:02:58;100209.03;;;10.33;92.18
57668;BME280;43499;52.366;12.912;2022-09-16T04:03:59;100204.72;;;10.33;92.16
57668;BME280;43499;52.366;12.912;2022-09-16T04:05:00;100205.97;;;10.39;92.09
57668;BME280;43499;52.366;12.912;2022-09-16T04:06:01;100205.28;;;10.29;91.75
57668;BME280;43499;52.366;12.912;2022-09-16T04:07:02;100201.38;;;10.24;92.71
57668;BME280;43499;52.366;12.912;2022-09-16T04:08:03;100204.00;;;10.24;92.00
57668;BME280;43499;52.366;12.912;2022-09-16T04:09:05;100199.94;;;10.28;92.53
57668;BME280;43499;52.366;12.912;2022-09-16T04:10:07;100192.72;;;10.25;92.38
57668;BME280;43499;52.366;12.912;2022-09-16T04:11:11;100202.66;;;10.29;92.13
57668;BME280;43499;52.366;12.912;2022-09-16T04:12:13;100201.97;;;10.32;92.12
57668;BME280;43499;52.366;12.912;2022-09-16T04:13:14;100205.28;;;10.29;92.68
57668;BME280;43499;52.366;12.912;2022-09-16T04:14:15;100199.00;;;10.27;92.13
57668;BME280;43499;52.366;12.912;2022-09-16T04:15:16;100200.03;;;10.29;92.50
57668;BME280;43499;52.366;12.912;2022-09-16T04:16:20;100201.63;;;10.27;92.26
57668;BME280;43499;52.366;12.912;2022-09-16T04:17:22;100205.03;;;10.26;91.98
57668;BME280;43499;52.366;12.912;2022-09-16T04:18:23;100202.41;;;10.26;91.76
57668;BME280;43499;52.366;12.912;2022-09-16T04:19:25;100200.50;;;10.12;92.57
57668;BME280;43499;52.366;12.912;2022-09-16T04:20:26;100201.84;;;10.18;92.97
57668;BME280;43499;52.366;12.912;2022-09-16T04:21:27;100209.38;;;10.14;92.75
57668;BME280;43499;52.366;12.912;2022-09-16T04:22:30;100205.06;;;10.14;92.91
57668;BME280;43499;52.366;12.912;2022-09-16T04:23:31;100209.53;;;10.15;93.12
57668;BME280;43499;52.366;12.912;2022-09-16T04:24:32;100210.56;;;10.17;92.32
57668;BME280;43499;52.366;12.912;2022-09-16T04:25:33;100207.22;;;10.20;92.13
57668;BME280;43499;52.366;12.912;2022-09-16T04:26:34;100205.50;;;10.21;92.50
57668;BME280;43499;52.366;12.912;2022-09-16T04:27:35;100216.34;;;10.25;92.32
57668;BME280;43499;52.366;12.912;2022-09-16T04:28:36;100207.81;;;10.04;93.18
57668;BME280;43499;52.366;12.912;2022-09-16T04:29:37;100212.59;;;10.10;92.70
57668;BME280;43499;52.366;12.912;2022-09-16T04:30:38;100209.19;;;10.11;92.86
57668;BME280;43499;52.366;12.912;2022-09-16T04:31:39;100205.88;;;10.13;92.42
57668;BME280;43499;52.366;12.912;2022-09-16T04:32:40;100204.28;;;10.15;92.71
57668;BME280;43499;52.366;12.912;2022-09-16T04:33:41;100205.28;;;10.06;92.88
57668;BME280;43499;52.366;12.912;2022-09-16T04:34:42;100204.38;;;10.05;93.51
57668;BME280;43499;52.366;12.912;2022-09-16T04:35:44;100208.25;;;10.10;93.48
57668;BME280;43499;52.366;12.912;2022-09-16T04:36:45;100202.75;;;10.07;92.83
57668;BME280;43499;52.366;12.912;2022-09-16T04:37:46;100205.38;;;10.07;92.52
57668;BME280;43499;52.366;12.912;2022-09-16T04:38:47;100204.72;;;10.10;92.50
57668;BME280;43499;52.366;12.912;2022-09-16T04:39:49;100205.63;;;10.10;92.33
57668;BME280;43499;52.366;12.912;2022-09-16T04:40:50;100207.56;;;10.13;92.59
57668;BME280;43499;52.366;12.912;2022-09-16T04:41:51;100204.59;;;10.08;92.68
57668;BME280;43499;52.366;12.912;2022-09-16T04:42:52;100201.41;;;10.12;92.82
57668;BME280;43499;52.366;12.912;2022-09-16T04:43:57;100202.44;;;10.14;92.12
57668;BME280;43499;52.366;12.912;2022-09-16T04:44:58;100208.50;;;10.13;92.66
57668;BME280;43499;52.366;12.912;2022-09-16T04:46:00;100204.13;;;10.14;92.25
57668;BME280;43499;52.366;12.912;2022-09-16T04:47:02;100203.25;;;10.13;92.61
57668;BME280;43499;52.366;12.912;2022-09-16T04:48:03;100203.22;;;10.01;92.62
57668;BME280;43499;52.366;12.912;2022-09-16T04:49:04;100210.09;;;9.99;93.70
57668;BME280;43499;52.366;12.912;2022-09-16T04:50:05;100203.00;;;9.98;92.68
57668;BME280;43499;52.366;12.912;2022-09-16T04:51:11;100206.09;;;10.04;93.31
57668;BME280;43499;52.366;12.912;2022-09-16T04:52:12;100198.34;;;10.06;92.53
57668;BME280;43499;52.366;12.912;2022-09-16T04:53:13;100201.97;;;10.08;92.98
57668;BME280;43499;52.366;12.912;2022-09-16T04:54:14;100205.53;;;10.09;92.39
57668;BME280;43499;52.366;12.912;2022-09-16T04:55:16;100205.41;;;9.95;93.13
57668;BME280;43499;52.366;12.912;2022-09-16T04:56:19;100208.72;;;10.04;93.02
57668;BME280;43499;52.366;12.912;2022-09-16T04:57:20;100199.34;;;10.08;92.92
57668;BME280;43499;52.366;12.912;2022-09-16T04:58:22;100201.50;;;10.14;92.71
57668;BME280;43499;52.366;12.912;2022-09-16T04:59:23;100205.16;;;10.16;91.91
57668;BME280;43499;52.366;12.912;2022-09-16T05:00:24;100199.56;;;10.11;92.49
57668;BME280;43499;52.366;12.912;2022-09-16T05:01:28;100198.69;;;10.11;92.41
57668;BME280;43499;52.366;12.912;2022-09-16T05:02:29;100199.69;;;10.13;92.16
57668;BME280;43499;52.366;12.912;2022-09-16T05:03:31;100196.25;;;10.14;92.25
57668;BME280;43499;52.366;12.912;2022-09-16T05:04:32;100200.72;;;10.03;93.18
57668;BME280;43499;52.366;12.912;2022-09-16T05:05:33;100196.94;;;10.11;92.60
57668;BME280;43499;52.366;12.912;2022-09-16T05:06:37;100194.22;;;10.10;92.47
57668;BME280;43499;52.366;12.912;2022-09-16T05:07:38;100192.06;;;10.04;92.36
57668;BME280;43499;52.366;12.912;2022-09-16T05:08:39;100190.53;;;9.96;92.85
57668;BME280;43499;52.366;12.912;2022-09-16T05:09:40;100196.81;;;9.98;93.24
57668;BME280;43499;52.366;12.912;2022-09-16T05:10:42;100197.31;;;10.04;93.36
57668;BME280;43499;52.366;12.912;2022-09-16T05:11:43;100199.25;;;10.07;92.75
57668;BME280;43499;52.366;12.912;2022-09-16T05:12:49;100199.34;;;10.08;92.54
57668;BME280;43499;52.366;12.912;2022-09-16T05:13:50;100198.78;;;10.12;92.47
57668;BME280;43499;52.366;12.912;2022-09-16T05:14:51;100200.13;;;10.07;93.11
57668;BME280;43499;52.366;12.912;2022-09-16T05:15:52;100204.13;;;10.14;92.60
57668;BME280;43499;52.366;12.912;2022-09-16T05:16:54;100199.81;;;10.14;92.59
57668;BME280;43499;52.366;12.912;2022-09-16T05:17:55;100206.44;;;10.21;92.24
57668;BME280;43499;52.366;12.912;2022-09-16T05:18:57;100201.63;;;10.27;91.72
57668;BME280;43499;52.366;12.912;2022-09-16T05:19:58;100199.94;;;10.28;92.07
57668;BME280;43499;52.366;12.912;2022-09-16T05:21:00;100201.06;;;10.31;91.56
57668;BME280;43499;52.366;12.912;2022-09-16T05:22:02;100197.50;;;10.31;91.56
57668;BME280;43499;52.366;12.912;2022-09-16T05:23:06;100203.13;;;10.24;92.13
57668;BME280;43499;52.366;12.912;2022-09-16T05:24:09;100199.78;;;10.26;91.83
57668;BME280;43499;52.366;12.912;2022-09-16T05:25:11;100199.22;;;10.18;92.84
57668;BME280;43499;52.366;12.912;2022-09-16T05:26:15;100202.78;;;10.19;92.47
57668;BME280;43499;52.366;12.912;2022-09-16T05:27:16;100203.00;;;10.22;92.53
57668;BME280;43499;52.366;12.912;2022-09-16T05:28:18;100201.28;;;10.23;92.26
57668;BME280;43499;52.366;12.912;2022-09-16T05:29:19;100200.16;;;10.19;92.71
57668;BME280;43499;52.366;12.912;2022-09-16T05:30:20;100199.78;;;10.26;92.74
57668;BME280;43499;52.366;12.912;2022-09-16T05:31:23;100198.19;;;10.28;92.01
57668;BME280;43499;52.366;12.912;2022-09-16T05:32:25;100205.38;;;10.31;91.79
57668;BME280;43499;52.366;12.912;2022-09-16T05:33:27;100195.22;;;10.35;92.39
57668;BME280;43499;52.366;12.912;2022-09-16T05:34:28;100203.22;;;10.25;93.13
57668;BME280;43499;52.366;12.912;2022-09-16T05:35:29;100199.34;;;10.20;93.10
57668;BME280;43499;52.366;12.912;2022-09-16T05:36:33;100193.88;;;10.29;92.73
57668;BME280;43499;52.366;12.912;2022-09-16T05:37:34;100196.84;;;10.33;92.27
57668;BME280;43499;52.366;12.912;2022-09-16T05:38:36;100194.31;;;10.35;91.77
57668;BME280;43499;52.366;12.912;2022-09-16T05:39:36;100182.78;;;10.33;92.00
57668;BME280;43499;52.366;12.912;2022-09-16T05:40:38;100191.03;;;10.38;92.67
57668;BME280;43499;52.366;12.912;2022-09-16T05:41:39;100189.66;;;10.43;92.37
57668;BME280;43499;52.366;12.912;2022-09-16T05:42:40;100198.56;;;10.45;91.78
57668;BME280;43499;52.366;12.912;2022-09-16T05:43:42;100180.59;;;10.51;92.00
57668;BME280;43499;52.366;12.912;2022-09-16T05:44:43;100184.25;;;10.53;91.74
57668;BME280;43499;52.366;12.912;2022-09-16T05:45:50;100183.56;;;10.68;91.11
57668;BME280;43499;52.366;12.912;2022-09-16T05:46:51;100181.66;;;10.78;90.88
57668;BME280;43499;52.366;12.912;2022-09-16T05:47:53;100187.47;;;10.86;90.25